Time;durP1;ratioP1;P1;durP2;ratioP2;P2;SDS_P1;SDS_P2;PMS_P1;PMS_P2;Temp;Humidity;BMP_temperature;BMP_pressure;BME280_temperature;BME280_humidity;BME280_pressure;Samples;Min_cycle;Max_cycle;Signal;HPM_P1;HPM_P2
2022/04/21 00:03:37;;;;;;;;;;;16.90;95.40;;;;;;31375771;28;20369;-32
2022/04/21 00:18:38;;;;;;;;;;;16.80;95.50;;;;;;31377354;28;19987;-32
2022/04/21 00:33:39;;;;;;;;;;;16.70;95.80;;;;;;31372954;28;19928;-33
2022/04/21 00:48:40;;;;;;;;;;;16.70;95.70;;;;;;31373117;28;20016;-35
2022/04/21 01:03:42;;;;;;;;;;;16.70;95.80;;;;;;31372376;28;19925;-31
2022/04/21 01:18:44;;;;;;;;;;;17.20;95.10;;;;;;31382147;28;19925;-33
2022/04/21 01:33:45;;;;;;;;;;;17.10;95.10;;;;;;31287943;28;20383;-32
2022/04/21 01:48:46;;;;;;;;;;;17.20;95.00;;;;;;31259443;28;19998;-32
2022/04/21 02:03:47;;;;;;;;;;;17.30;95.00;;;;;;31265466;28;19932;-40
2022/04/21 02:18:49;;;;;;;;;;;17.40;94.90;;;;;;31263108;28;20021;-38
2022/04/21 02:33:50;;;;;;;;;;;17.30;95.10;;;;;;31260525;28;20012;-40
2022/04/21 02:48:51;;;;;;;;;;;17.20;95.20;;;;;;31260287;28;19925;-36
2022/04/21 03:03:54;;;;;;;;;;;17.10;95.40;;;;;;31260228;28;20378;-37
2022/04/21 03:18:55;;;;;;;;;;;17.00;95.60;;;;;;31257357;28;19965;-36
2022/04/21 03:33:56;;;;;;;;;;;17.00;95.80;;;;;;31255741;28;20329;-39
2022/04/21 03:48:58;;;;;;;;;;;16.90;95.90;;;;;;31258516;28;19928;-39
2022/04/21 04:03:59;;;;;;;;;;;16.80;96.00;;;;;;31376873;28;19935;-32
2022/04/21 04:19:05;;;;;;;;;;;16.80;96.00;;;;;;31376035;28;19967;-32
2022/04/21 04:34:08;;;;;;;;;;;16.70;96.50;;;;;;31372799;28;20027;-32
2022/04/21 04:49:09;;;;;;;;;;;16.70;96.30;;;;;;31372061;28;19929;-32
2022/04/21 05:04:12;;;;;;;;;;;16.70;96.40;;;;;;31371164;28;20285;-32
2022/04/21 05:19:13;;;;;;;;;;;16.70;96.60;;;;;;31371017;28;20035;-32
2022/04/21 05:34:14;;;;;;;;;;;16.60;96.80;;;;;;31368476;28;20028;-32
2022/04/21 05:49:19;;;;;;;;;;;16.60;97.00;;;;;;31369380;28;19932;-31
2022/04/21 06:04:22;;;;;;;;;;;16.60;97.30;;;;;;31376099;28;20018;-32
2022/04/21 06:19:23;;;;;;;;;;;16.60;97.50;;;;;;31387725;28;19925;-32
2022/04/21 06:34:24;;;;;;;;;;;16.60;97.80;;;;;;31280708;28;19929;-32
2022/04/21 06:49:27;;;;;;;;;;;16.80;97.80;;;;;;31257191;28;20440;-39
2022/04/21 07:04:28;;;;;;;;;;;16.80;98.00;;;;;;31252699;28;19925;-34
2022/04/21 07:19:29;;;;;;;;;;;16.80;98.20;;;;;;31244510;28;19933;-39
2022/04/21 07:34:30;;;;;;;;;;;16.80;98.50;;;;;;31242136;28;20396;-33
2022/04/21 07:49:47;;;;;;;;;;;17.30;97.90;;;;;;31255320;28;20028;-41
2022/04/21 08:04:49;;;;;;;9.83;8.83;;;17.70;97.10;;;;;;31303414;28;19933;-39
2022/04/21 08:19:50;;;;;;;8.13;7.23;;;13.30;99.90;;;;;;31275230;28;20560;-40
2022/04/21 08:34:51;;;;;;;;;;;13.10;99.90;;;;;;31278596;28;20127;-38
2022/04/21 08:49:52;;;;;;;;;;;13.20;99.90;;;;;;31271262;28;19921;-38
2022/04/21 09:04:53;;;;;;;;;;;13.20;99.90;;;;;;31349158;28;19920;-40
2022/04/21 09:19:58;;;;;;;;;;;13.20;99.90;;;;;;31239931;28;19925;-33
2022/04/21 09:34:59;;;;;;;;;;;13.20;99.90;;;;;;31236250;28;19989;-33
2022/04/21 09:50:12;;;;;;;;;;;13.20;99.90;;;;;;31255177;28;19925;-39
2022/04/21 10:05:13;;;;;;;;;;;13.20;99.90;;;;;;31268793;28;19927;-36
2022/04/21 10:20:14;;;;;;;;;;;13.20;99.90;;;;;;31293317;28;19927;-34
2022/04/21 10:35:19;;;;;;;;;;;13.20;99.90;;;;;;31306586;28;20019;-36
2022/04/21 10:50:20;;;;;;;;;;;13.30;99.90;;;;;;31273916;28;20289;-42
2022/04/21 11:05:21;;;;;;;;;;;13.40;99.90;;;;;;31288104;28;19921;-41
2022/04/21 11:20:28;;;;;;;;;;;13.40;99.90;;;;;;31327241;28;20416;-34
2022/04/21 11:35:29;;;;;;;;;;;13.40;99.90;;;;;;31316136;28;20016;-42
2022/04/21 11:50:30;;;;;;;;;;;13.40;99.90;;;;;;31381175;28;19964;-32
2022/04/21 12:20:53;;;;;;;;;;;13.40;99.90;;;;;;31254700;28;20000;-33
2022/04/21 12:35:56;;;;;;;;;;;13.40;99.90;;;;;;31238277;28;19925;-32
2022/04/21 12:50:58;;;;;;;;;;;13.50;99.90;;;;;;31219936;28;20345;-35
2022/04/21 13:05:59;;;;;;;;;;;13.60;99.90;;;;;;31287293;28;19981;-32
2022/04/21 13:36:20;;;;;;;;;;;13.80;99.90;;;;;;31383724;28;20381;-32
2022/04/21 13:51:22;;;;;;;;;;;14.00;99.90;;;;;;31344310;28;19933;-32
2022/04/21 14:06:24;;;;;;;9.27;7.63;;;14.10;99.90;;;;;;31323580;28;19970;-32
2022/04/21 14:21:25;;;;;;;;;;;14.00;99.90;;;;;;31320483;28;20399;-32
2022/04/21 14:36:27;;;;;;;;;;;13.90;99.90;;;;;;31326071;28;20395;-32
2022/04/21 14:51:29;;;;;;;;;;;13.90;99.90;;;;;;31288993;28;19924;-34
2022/04/21 15:06:30;;;;;;;;;;;13.90;99.90;;;;;;31285897;28;20024;-38
2022/04/21 15:21:35;;;;;;;;;;;13.90;99.90;;;;;;31258231;28;19921;-36
2022/04/21 15:36:42;;;;;;;;;;;13.80;99.90;;;;;;31256319;28;19921;-39
2022/04/21 15:51:45;;;;;;;;;;;13.80;99.90;;;;;;31285612;28;19936;-38
2022/04/21 16:06:46;;;;;;;;;;;13.80;99.90;;;;;;31290475;28;19921;-19
2022/04/21 16:21:47;;;;;;;;;;;13.80;99.90;;;;;;31265549;28;19932;-20
2022/04/21 16:36:48;;;;;;;;;;;14.00;99.90;;;;;;31238131;28;19928;-20
2022/04/21 16:51:49;;;;;;;;;;;14.00;99.90;;;;;;31249528;28;19921;-20
2022/04/21 17:06:50;;;;;;;;;;;14.10;99.90;;;;;;31235071;28;20019;-20
2022/04/21 17:21:52;;;;;;;;;;;15.80;99.90;;;;;;31234168;28;19978;-21
2022/04/21 17:36:53;;;;;;;;;;;16.50;98.20;;;;;;31307982;28;19943;-22
2022/04/21 17:51:54;;;;;;;;;;;16.70;97.50;;;;;;31296645;28;19921;-23
2022/04/21 18:06:56;;;;;;;;;;;17.80;96.00;;;;;;31262976;28;20055;-20
2022/04/21 18:22:02;;;;;;;;;;;18.70;94.20;;;;;;31301708;28;19944;-20
2022/04/21 18:37:04;;;;;;;;;;;18.30;93.80;;;;;;31271914;28;19928;-20
2022/04/21 18:52:06;;;;;;;;;;;18.20;93.80;;;;;;31262536;28;19967;-20
2022/04/21 19:07:07;;;;;;;;;;;18.00;94.10;;;;;;31259536;28;19979;-20
2022/04/21 19:22:10;;;;;;;8.48;6.25;;;17.90;94.20;;;;;;31293754;28;20366;-19
2022/04/21 19:37:11;;;;;;;;;;;17.60;94.70;;;;;;31265716;28;20045;-21
2022/04/21 19:52:12;;;;;;;;;;;17.20;95.50;;;;;;31256257;28;19992;-24
2022/04/21 20:22:34;;;;;;;;;;;16.90;97.20;;;;;;31253093;28;19921;-20
2022/04/21 20:37:35;;;;;;;;;;;16.90;98.60;;;;;;31251313;28;20019;-20
2022/04/21 20:52:36;;;;;;;;;;;16.90;99.20;;;;;;31250487;28;19930;-21
2022/04/21 21:07:37;;;;;;;;;;;16.90;99.40;;;;;;31249216;28;19921;-23
2022/04/21 21:22:48;;;;;;;60.85;36.50;;;16.90;99.50;;;;;;31249154;28;20460;-21
2022/04/21 21:37:51;;;;;;;72.90;46.23;;;16.70;99.50;;;;;;31263709;28;20080;-21
2022/04/21 21:52:55;;;;;;;22.60;15.63;;;16.80;99.40;;;;;;31269485;28;20479;-21
2022/04/21 22:07:56;;;;;;;25.83;19.35;;;16.80;99.10;;;;;;31268733;28;20377;-20
2022/04/21 22:22:58;;;;;;;9.90;7.80;;;16.90;98.80;;;;;;31266562;28;20062;-20
2022/04/21 22:37:59;;;;;;;6.90;5.13;;;17.00;98.70;;;;;;31265360;28;20046;-21
2022/04/21 22:53:04;;;;;;;8.73;6.97;;;17.00;98.70;;;;;;31262066;28;20049;-20
2022/04/21 23:08:06;;;;;;;44.67;31.88;;;17.00;98.40;;;;;;31259891;28;20053;-21
2022/04/21 23:23:07;;;;;;;15.40;11.75;;;17.00;98.50;;;;;;31260130;28;20124;-20
2022/04/21 23:53:28;;;;;;;19.33;14.73;;;16.80;99.00;;;;;;31256622;28;20092;-21
